Houston, TX (77005)

1:52 AM CDT on September 02, 2014 (GMT -0500)
West U | Change Station
CLOSE
Current Station
Personal Weather Station
Location: West University Place, TX
Elevation: 50 ft
Nearby Weather Stations

Elev 50 ft 29.72 °N, 95.43 °W | Updated 8 seconds ago

Partly Cloudy
Partly Cloudy
81.4 °F
Feels Like 89 °F
N
1.0
Wind Variable Wind from SE
Gusts 3.0 mph

Today
High -- | Low -- °F
--% Chance of Precip.
Yesterday
High -- | Low -- °F
Precip. -- in
6:59 AM 7:42 PM
Waxing Crescent, 48% visible
Pressure 29.90 in
Visibility 10.0 miles
Clouds Few 1800 ft
Heat Index 89 °F
Dew Point 78 °F
Humidity 88%
Rainfall 0.00 in
Snow Depth Not available.
UV 0.0 out of 12
Pollen 6.40 out of 12
Ozone Good
PM2.5 Good
Flu Activity Not available.
METAR KMCJ 020635Z AUTO 14009KT 10SM FEW018 27/25 A2990 RMK AO1

More Conditions Fewer Conditions

Pressure 29.90 in
Visibility 10.0 miles
Clouds Few 1800 ft
Heat Index 89 °F
Dew Point 78 °F
Humidity 88%
Rainfall 0.00 in
Snow Depth Not available.
UV 0.0 out of 12
Pollen 6.40 out of 12
Ozone Good
PM2.5 Good
Flu Activity Not available.
METAR KMCJ 020635Z AUTO 14009KT 10SM FEW018 27/25 A2990 RMK AO1

More Conditions Fewer Conditions

10-Day Weather Forecast

Almanac

Astronomy

Sep. 02, 2014 Rise Set
Actual Time 6:59 AM CDT 7:42 PM CDT
Civil Twilight 6:35 AM CDT 8:06 PM CDT
Nautical Twilight 6:06 AM CDT 8:35 PM CDT
Astronomical Twilight 5:37 AM CDT 9:04 PM CDT
Moon 2:13 PM CDT 12:16 AM CDT
Length of Visible Light 13h 31m
Length of Day
12h 43m
Tomorrow will be 1m 43s shorter.
Waxing Crescent, 48% of the Moon is Illuminated
Today
Waxing Crescent
Sep 2
First Quarter
Sep 8
Full
Sep 15
Last Quarter
Sep 24
New

Today's Extremes

State Highs State Lows

Community

WunderPhotos

Upload Photos

1,749,589 photos uploaded!

WunderBlogs® & News

Nearby

Air Quality

  Air Quality AQ Index Pollutant
Yesterday Good
PM2.5
Yesterday Good
OZONE
Current Good
PM2.5
Current Good
OZONE
Tuesday Good
OZONE
Tuesday Good
PM10
Wednesday Good
OZONE
Wednesday Good
PM10
Thursday Good
OZONE
Thursday Good
PM10

Snow Depth

Station Depth Elevation
No new snow has been reported.

Earthquake Activity

City Distance Mag. Time & Date
No recent earthquake activity has been reported nearby.
Minimum magnitude displayed is 2.5.

Coastal Water Temperatures

Place Temperature
Eagle Point, TX 84.9 °F
USCG Freeport, TX 84.9 °F
Galveston Pier TX 84.0 °F
Galveston Bay (North Jetty), TX 84.0 °F
Rollover Pass, TX 82.9 °F

Nearby Weather Stations